Time;durP1;ratioP1;P1;durP2;ratioP2;P2;SDS_P1;SDS_P2;PMS_P1;PMS_P2;Temp;Humidity;BMP_temperature;BMP_pressure;BME280_temperature;BME280_humidity;BME280_pressure;Samples;Min_cycle;Max_cycle;Signal;HPM_P1;HPM_P2
2020/12/20 00:00:38;;;;;;;69.18;51.00;;;;;;;;;;6193911;28;20103;-74
2020/12/20 00:03:39;;;;;;;71.85;51.33;;;;;;;;;;6195932;28;20517;-74
2020/12/20 00:06:43;;;;;;;73.05;53.65;;;;;;;;;;6198940;28;20099;-74
2020/12/20 00:09:44;;;;;;;76.50;58.70;;;;;;;;;;6204299;28;20124;-74
2020/12/20 00:12:45;;;;;;;77.07;53.45;;;;;;;;;;6206669;28;20439;-73
2020/12/20 00:15:46;;;;;;;77.78;54.17;;;;;;;;;;6208261;28;20048;-74
2020/12/20 00:18:47;;;;;;;86.03;60.90;;;;;;;;;;6195149;28;20046;-74
2020/12/20 00:21:54;;;;;;;82.78;57.75;;;;;;;;;;6203097;28;20099;-74
2020/12/20 00:24:55;;;;;;;84.95;56.15;;;;;;;;;;6201838;28;20050;-74
2020/12/20 00:27:56;;;;;;;84.18;57.15;;;;;;;;;;6199498;28;20049;-74
2020/12/20 00:30:57;;;;;;;82.60;56.92;;;;;;;;;;6195630;28;20399;-75
2020/12/20 00:33:58;;;;;;;82.47;57.65;;;;;;;;;;6206567;28;20153;-74
2020/12/20 00:37:00;;;;;;;82.28;57.63;;;;;;;;;;6205030;28;20050;-74
2020/12/20 00:40:01;;;;;;;82.10;56.40;;;;;;;;;;6195599;28;20049;-74
2020/12/20 00:43:02;;;;;;;84.95;57.22;;;;;;;;;;6214014;28;20137;-74
2020/12/20 00:46:03;;;;;;;83.45;59.08;;;;;;;;;;6203534;28;20042;-74
2020/12/20 00:49:04;;;;;;;84.38;59.35;;;;;;;;;;6201388;28;20557;-75
2020/12/20 00:52:07;;;;;;;87.45;58.35;;;;;;;;;;6208918;28;20042;-75
2020/12/20 00:55:08;;;;;;;83.60;58.35;;;;;;;;;;6200085;28;20795;-76
2020/12/20 00:58:09;;;;;;;85.43;57.53;;;;;;;;;;6204299;28;20035;-75
2020/12/20 01:01:11;;;;;;;87.50;57.47;;;;;;;;;;6209086;28;20049;-76
2020/12/20 01:04:12;;;;;;;84.53;59.72;;;;;;;;;;6195766;28;20042;-75
2020/12/20 01:07:14;;;;;;;83.68;58.20;;;;;;;;;;6179598;28;21723;-74
2020/12/20 01:10:15;;;;;;;83.57;57.50;;;;;;;;;;6198362;28;20072;-74
2020/12/20 01:13:16;;;;;;;83.50;57.72;;;;;;;;;;6206570;28;20045;-76
2020/12/20 01:16:18;;;;;;;83.03;59.33;;;;;;;;;;6207510;28;20050;-75
2020/12/20 01:19:19;;;;;;;89.88;61.63;;;;;;;;;;6201107;28;20038;-74
2020/12/20 01:22:21;;;;;;;87.35;62.35;;;;;;;;;;6184416;28;20054;-74
2020/12/20 01:25:22;;;;;;;87.93;59.30;;;;;;;;;;6207915;28;20069;-74
2020/12/20 01:28:23;;;;;;;91.97;64.07;;;;;;;;;;6201453;28;20054;-73
2020/12/20 01:31:25;;;;;;;89.07;61.35;;;;;;;;;;6180384;28;20153;-75
2020/12/20 01:34:26;;;;;;;90.70;61.47;;;;;;;;;;6195332;28;20217;-74
2020/12/20 01:37:31;;;;;;;93.63;64.90;;;;;;;;;;6202360;28;20076;-75
2020/12/20 01:40:32;;;;;;;90.78;61.90;;;;;;;;;;6203081;28;20058;-74
2020/12/20 01:43:40;;;;;;;89.00;62.65;;;;;;;;;;6211942;28;20054;-73
2020/12/20 01:46:43;;;;;;;85.60;60.40;;;;;;;;;;6203217;28;20134;-75
2020/12/20 01:49:44;;;;;;;85.25;59.70;;;;;;;;;;6211976;28;20096;-76
2020/12/20 01:52:46;;;;;;;85.15;59.85;;;;;;;;;;6207608;28;20046;-73
2020/12/20 01:55:48;;;;;;;84.55;58.20;;;;;;;;;;6204931;28;20042;-73
2020/12/20 01:58:50;;;;;;;85.55;59.60;;;;;;;;;;6200697;28;20072;-73
2020/12/20 02:01:51;;;;;;;84.03;60.08;;;;;;;;;;6209628;28;20049;-73
2020/12/20 02:04:52;;;;;;;85.05;58.22;;;;;;;;;;6202106;28;20459;-74
2020/12/20 02:07:54;;;;;;;84.85;59.78;;;;;;;;;;6204601;28;20121;-73
2020/12/20 02:11:09;;;;;;;82.82;58.17;;;;;;;;;;6204906;28;20042;-74
2020/12/20 02:14:11;;;;;;;79.53;55.10;;;;;;;;;;6198587;28;20096;-74
2020/12/20 02:17:12;;;;;;;81.40;58.40;;;;;;;;;;6210169;28;20050;-73
2020/12/20 02:20:13;;;;;;;78.88;55.95;;;;;;;;;;6203503;28;20529;-74
2020/12/20 02:23:15;;;;;;;79.28;57.03;;;;;;;;;;6207504;28;20054;-73
2020/12/20 02:26:16;;;;;;;79.95;57.08;;;;;;;;;;6205433;28;20490;-72
2020/12/20 02:29:17;;;;;;;79.15;55.08;;;;;;;;;;6209677;28;20049;-72
2020/12/20 02:32:19;;;;;;;79.82;57.15;;;;;;;;;;6203661;28;20520;-73
2020/12/20 02:35:20;;;;;;;83.80;58.85;;;;;;;;;;6208786;28;21617;-74
2020/12/20 02:38:22;;;;;;;75.97;54.75;;;;;;;;;;6209176;28;20048;-73
2020/12/20 02:41:23;;;;;;;78.07;55.63;;;;;;;;;;6206753;28;20125;-73
2020/12/20 02:44:24;;;;;;;79.20;55.58;;;;;;;;;;6207390;28;20738;-74
2020/12/20 02:47:25;;;;;;;74.80;53.28;;;;;;;;;;6209046;28;20052;-73
2020/12/20 02:50:26;;;;;;;73.75;53.15;;;;;;;;;;6203042;28;20133;-73
2020/12/20 02:53:28;;;;;;;75.40;52.60;;;;;;;;;;6208885;28;20096;-72
2020/12/20 02:56:29;;;;;;;69.63;50.10;;;;;;;;;;6203747;28;20050;-73
2020/12/20 02:59:30;;;;;;;75.90;53.72;;;;;;;;;;6204736;28;20050;-73
2020/12/20 03:02:31;;;;;;;72.63;52.58;;;;;;;;;;6207294;28;20448;-72
2020/12/20 03:05:32;;;;;;;72.15;51.78;;;;;;;;;;6201405;28;20149;-73
2020/12/20 03:08:34;;;;;;;73.43;52.75;;;;;;;;;;6202700;28;20062;-73
2020/12/20 03:11:36;;;;;;;72.88;51.72;;;;;;;;;;6204764;28;20095;-73
2020/12/20 03:14:37;;;;;;;71.15;49.85;;;;;;;;;;6207469;28;20054;-72
2020/12/20 03:17:38;;;;;;;71.18;51.72;;;;;;;;;;6211346;28;20129;-72
2020/12/20 03:20:39;;;;;;;70.60;51.35;;;;;;;;;;6211801;28;20095;-73
2020/12/20 03:23:41;;;;;;;72.03;50.35;;;;;;;;;;6207228;28;20053;-73
2020/12/20 03:26:42;;;;;;;73.45;52.50;;;;;;;;;;6201697;28;20129;-74
2020/12/20 03:29:43;;;;;;;68.88;50.63;;;;;;;;;;6197783;28;20493;-73
2020/12/20 03:32:44;;;;;;;72.97;51.95;;;;;;;;;;6204077;28;20467;-73
2020/12/20 03:35:45;;;;;;;69.20;50.20;;;;;;;;;;6209967;28;20058;-73
2020/12/20 03:38:47;;;;;;;71.40;51.70;;;;;;;;;;6205930;28;20054;-73
2020/12/20 03:41:48;;;;;;;67.68;47.42;;;;;;;;;;6210317;28;20048;-73
2020/12/20 03:44:49;;;;;;;69.07;51.22;;;;;;;;;;6195995;28;20141;-73
2020/12/20 03:47:50;;;;;;;72.80;52.55;;;;;;;;;;6205745;28;20554;-73
2020/12/20 03:50:51;;;;;;;73.80;52.97;;;;;;;;;;6204228;28;20042;-74
2020/12/20 03:53:53;;;;;;;72.68;51.47;;;;;;;;;;6199402;28;20046;-73
2020/12/20 03:56:55;;;;;;;72.85;51.45;;;;;;;;;;6202571;28;20050;-73
2020/12/20 03:59:57;;;;;;;70.68;50.20;;;;;;;;;;6207224;28;20050;-73
2020/12/20 04:02:58;;;;;;;71.70;49.53;;;;;;;;;;6202923;28;20057;-72
2020/12/20 04:05:59;;;;;;;69.47;49.40;;;;;;;;;;6211134;28;20046;-73
2020/12/20 04:09:01;;;;;;;75.95;52.65;;;;;;;;;;6211244;28;20077;-73
2020/12/20 04:12:03;;;;;;;72.10;51.60;;;;;;;;;;6211934;28;20129;-73
2020/12/20 04:15:04;;;;;;;72.25;51.10;;;;;;;;;;6206831;28;20046;-73
2020/12/20 04:18:05;;;;;;;73.72;52.25;;;;;;;;;;6207090;28;20042;-73
2020/12/20 04:21:07;;;;;;;71.88;51.25;;;;;;;;;;6208241;28;20125;-72
2020/12/20 04:24:08;;;;;;;73.30;51.70;;;;;;;;;;6200866;28;20054;-73
2020/12/20 04:27:09;;;;;;;75.30;51.00;;;;;;;;;;6206500;28;20046;-73
2020/12/20 04:30:10;;;;;;;79.93;52.20;;;;;;;;;;6199938;28;20054;-72
2020/12/20 04:33:11;;;;;;;78.50;52.65;;;;;;;;;;6202798;28;20042;-72
2020/12/20 04:36:13;;;;;;;79.40;53.50;;;;;;;;;;6203336;28;20054;-73
2020/12/20 04:39:15;;;;;;;76.65;53.70;;;;;;;;;;6203521;28;20042;-74
2020/12/20 04:42:16;;;;;;;75.78;53.38;;;;;;;;;;6203132;28;20125;-72
2020/12/20 04:45:17;;;;;;;76.50;52.80;;;;;;;;;;6212371;28;20129;-72
2020/12/20 04:48:19;;;;;;;75.32;50.05;;;;;;;;;;6199316;28;20424;-72
2020/12/20 04:51:21;;;;;;;79.70;54.35;;;;;;;;;;6202162;28;20417;-73
2020/12/20 04:54:24;;;;;;;75.38;52.00;;;;;;;;;;6205587;28;20038;-73
2020/12/20 04:57:26;;;;;;;78.65;50.53;;;;;;;;;;6198849;28;20052;-73
2020/12/20 05:00:27;;;;;;;71.78;49.55;;;;;;;;;;6200284;28;20402;-73
2020/12/20 05:03:28;;;;;;;76.10;53.47;;;;;;;;;;6199819;28;20045;-73
2020/12/20 05:06:30;;;;;;;78.65;52.65;;;;;;;;;;6200609;28;20068;-73
2020/12/20 05:09:32;;;;;;;78.72;52.67;;;;;;;;;;6195933;28;20120;-73
2020/12/20 05:12:34;;;;;;;83.68;53.83;;;;;;;;;;6202393;28;20060;-73
2020/12/20 05:15:35;;;;;;;81.60;53.53;;;;;;;;;;6204164;28;20189;-73
2020/12/20 05:18:36;;;;;;;75.93;53.05;;;;;;;;;;6218355;28;20064;-73
2020/12/20 05:21:37;;;;;;;74.53;50.97;;;;;;;;;;6207246;28;20042;-73
2020/12/20 05:24:40;;;;;;;76.63;52.30;;;;;;;;;;6203129;28;20045;-73
2020/12/20 05:27:41;;;;;;;78.75;52.10;;;;;;;;;;6208503;28;20057;-73
2020/12/20 05:30:44;;;;;;;77.28;52.05;;;;;;;;;;6211699;28;20054;-73
2020/12/20 05:33:45;;;;;;;75.68;51.22;;;;;;;;;;6219431;28;20050;-73
2020/12/20 05:36:46;;;;;;;79.88;53.17;;;;;;;;;;6218202;28;20058;-74
2020/12/20 05:39:47;;;;;;;76.50;50.97;;;;;;;;;;6218469;28;20042;-73
2020/12/20 05:42:54;;;;;;;76.90;50.78;;;;;;;;;;6220085;28;20042;-73
2020/12/20 05:45:58;;;;;;;72.20;48.20;;;;;;;;;;6206124;28;20050;-73
2020/12/20 05:49:13;;;;;;;72.72;47.45;;;;;;;;;;6206403;28;20073;-73
2020/12/20 05:52:14;;;;;;;74.72;48.42;;;;;;;;;;6198298;28;20410;-73
2020/12/20 05:55:16;;;;;;;75.60;50.75;;;;;;;;;;6203115;28;20565;-73
2020/12/20 05:58:17;;;;;;;72.95;49.58;;;;;;;;;;6205325;28;20547;-74
2020/12/20 06:01:20;;;;;;;72.72;47.80;;;;;;;;;;6207285;28;20053;-73
2020/12/20 06:04:21;;;;;;;71.50;45.20;;;;;;;;;;6204092;28;20129;-73
2020/12/20 06:07:25;;;;;;;68.93;44.17;;;;;;;;;;6207414;28;20588;-73
2020/12/20 06:10:34;;;;;;;71.28;44.97;;;;;;;;;;6213937;28;20062;-73
2020/12/20 06:13:35;;;;;;;65.85;42.42;;;;;;;;;;6215684;28;20064;-72
2020/12/20 06:16:36;;;;;;;66.50;43.65;;;;;;;;;;6202273;28;20050;-73
2020/12/20 06:19:48;;;;;;;67.63;42.22;;;;;;;;;;6201584;28;20076;-74
2020/12/20 06:22:53;;;;;;;66.28;41.45;;;;;;;;;;6201298;28;20422;-74
2020/12/20 06:25:57;;;;;;;66.28;41.33;;;;;;;;;;6203578;28;20050;-74
2020/12/20 06:29:03;;;;;;;62.78;40.72;;;;;;;;;;6206241;28;20050;-74
2020/12/20 06:32:05;;;;;;;61.60;40.40;;;;;;;;;;6214431;28;20047;-74
2020/12/20 06:35:19;;;;;;;56.38;38.00;;;;;;;;;;6204902;28;20045;-74
2020/12/20 06:38:21;;;;;;;70.23;43.10;;;;;;;;;;6215088;28;20049;-74
2020/12/20 06:41:33;;;;;;;63.28;40.25;;;;;;;;;;6209514;28;20620;-74
2020/12/20 06:44:34;;;;;;;65.95;41.38;;;;;;;;;;6196233;28;20047;-74
2020/12/20 06:47:40;;;;;;;68.95;42.88;;;;;;;;;;6205817;28;20053;-75
2020/12/20 06:50:43;;;;;;;68.38;43.30;;;;;;;;;;6200889;28;20517;-74
2020/12/20 06:53:52;;;;;;;65.57;43.42;;;;;;;;;;6203069;28;20630;-74
2020/12/20 06:57:10;;;;;;;71.47;41.97;;;;;;;;;;6213608;28;20129;-75
2020/12/20 07:00:11;;;;;;;73.35;44.65;;;;;;;;;;6221002;28;20120;-74
2020/12/20 07:03:36;;;;;;;73.03;44.60;;;;;;;;;;6232394;28;20141;-75
2020/12/20 07:06:37;;;;;;;71.38;42.67;;;;;;;;;;6234407;28;20037;-75
2020/12/20 07:09:38;;;;;;;72.15;44.38;;;;;;;;;;6227126;28;20104;-74
2020/12/20 07:12:44;;;;;;;70.80;43.75;;;;;;;;;;6229284;28;20111;-75
2020/12/20 07:15:46;;;;;;;70.07;42.92;;;;;;;;;;6229038;28;20497;-74
2020/12/20 07:18:52;;;;;;;69.65;43.72;;;;;;;;;;6230487;28;20506;-75
2020/12/20 07:22:02;;;;;;;68.35;43.47;;;;;;;;;;6231871;28;20530;-73
2020/12/20 07:25:03;;;;;;;62.50;40.75;;;;;;;;;;6232518;28;20125;-73
2020/12/20 07:28:05;;;;;;;64.28;39.95;;;;;;;;;;6215107;28;20049;-75
2020/12/20 07:31:13;;;;;;;58.97;38.28;;;;;;;;;;6201581;28;20497;-74
2020/12/20 07:34:14;;;;;;;56.55;37.03;;;;;;;;;;6201112;28;20136;-73
2020/12/20 07:37:15;;;;;;;57.08;35.72;;;;;;;;;;6221898;28;20050;-73
2020/12/20 07:40:18;;;;;;;58.08;36.10;;;;;;;;;;6223905;28;20056;-73
2020/12/20 07:43:19;;;;;;;51.83;33.78;;;;;;;;;;6229779;28;20050;-74
2020/12/20 07:46:22;;;;;;;58.40;36.53;;;;;;;;;;6227047;28;20046;-74
2020/12/20 07:49:23;;;;;;;55.67;35.78;;;;;;;;;;6234746;28;20100;-73
2020/12/20 07:52:24;;;;;;;57.00;36.80;;;;;;;;;;6235157;28;20037;-73
2020/12/20 07:55:25;;;;;;;53.72;34.63;;;;;;;;;;6239594;28;20091;-73
2020/12/20 07:58:30;;;;;;;52.25;35.28;;;;;;;;;;6240064;28;20464;-74
2020/12/20 08:01:31;;;;;;;54.05;35.55;;;;;;;;;;6225728;28;20049;-74
2020/12/20 08:04:32;;;;;;;52.40;34.03;;;;;;;;;;6236871;28;20075;-75
2020/12/20 08:07:34;;;;;;;53.47;35.50;;;;;;;;;;6232083;28;20049;-73
2020/12/20 08:10:35;;;;;;;51.80;33.28;;;;;;;;;;6219135;28;20061;-73
2020/12/20 08:13:37;;;;;;;51.00;33.80;;;;;;;;;;6220869;28;20050;-73
2020/12/20 08:16:40;;;;;;;50.80;34.60;;;;;;;;;;6229911;28;20141;-73
2020/12/20 08:19:41;;;;;;;53.28;33.85;;;;;;;;;;6226744;28;20048;-74
2020/12/20 08:22:42;;;;;;;48.67;34.05;;;;;;;;;;6221177;28;20038;-74
2020/12/20 08:25:43;;;;;;;50.10;32.70;;;;;;;;;;6230248;28;20046;-74
2020/12/20 08:28:45;;;;;;;55.92;36.03;;;;;;;;;;6227748;28;20071;-73
2020/12/20 08:31:47;;;;;;;51.67;35.50;;;;;;;;;;6228917;28;20049;-73
2020/12/20 08:34:49;;;;;;;54.30;35.60;;;;;;;;;;6226675;28;20038;-73
2020/12/20 08:37:53;;;;;;;55.63;35.65;;;;;;;;;;6223833;28;20050;-73
2020/12/20 08:40:54;;;;;;;57.67;37.67;;;;;;;;;;6229869;28;20499;-73
2020/12/20 08:44:06;;;;;;;52.50;35.13;;;;;;;;;;6226680;28;20049;-73
2020/12/20 08:47:09;;;;;;;54.00;34.67;;;;;;;;;;6231537;28;20041;-73
2020/12/20 08:50:12;;;;;;;49.38;33.13;;;;;;;;;;6224902;28;20052;-73
2020/12/20 08:53:14;;;;;;;47.65;32.05;;;;;;;;;;6227342;28;20182;-73
2020/12/20 08:56:15;;;;;;;39.45;26.35;;;;;;;;;;6230184;28;20037;-74
2020/12/20 08:59:26;;;;;;;38.30;23.10;;;;;;;;;;6234183;28;20059;-74
2020/12/20 09:02:27;;;;;;;32.80;21.77;;;;;;;;;;6234196;28;20052;-74
2020/12/20 09:05:29;;;;;;;38.78;25.02;;;;;;;;;;6224267;28;20112;-73
2020/12/20 09:08:33;;;;;;;38.90;25.02;;;;;;;;;;6200529;28;20057;-74
2020/12/20 09:11:34;;;;;;;44.70;27.15;;;;;;;;;;6195944;28;20044;-73
2020/12/20 09:14:36;;;;;;;39.88;27.17;;;;;;;;;;6201087;28;20064;-75
2020/12/20 09:17:39;;;;;;;46.72;28.85;;;;;;;;;;6200547;28;20068;-76
2020/12/20 09:20:41;;;;;;;43.95;28.55;;;;;;;;;;6216564;28;20050;-74
2020/12/20 09:23:42;;;;;;;48.10;29.98;;;;;;;;;;6224317;28;20050;-74
2020/12/20 09:26:54;;;;;;;47.63;29.43;;;;;;;;;;5873657;28;10001143;-75
2020/12/20 09:29:56;;;;;;;43.50;28.67;;;;;;;;;;6217195;28;20063;-73
2020/12/20 09:32:57;;;;;;;46.30;30.88;;;;;;;;;;6227562;28;20065;-73
2020/12/20 09:36:01;;;;;;;43.42;29.60;;;;;;;;;;6230966;28;20679;-74
2020/12/20 09:39:03;;;;;;;47.85;32.05;;;;;;;;;;6225197;28;20049;-75
2020/12/20 09:42:04;;;;;;;45.47;30.52;;;;;;;;;;6224889;28;20053;-75
2020/12/20 09:45:07;;;;;;;41.70;29.65;;;;;;;;;;6227149;28;20362;-75
2020/12/20 09:48:08;;;;;;;48.78;28.33;;;;;;;;;;6226268;28;20060;-75
2020/12/20 09:51:09;;;;;;;40.17;27.27;;;;;;;;;;6230426;28;20052;-75
2020/12/20 09:54:10;;;;;;;43.28;28.38;;;;;;;;;;6230962;28;20046;-73
2020/12/20 09:57:11;;;;;;;43.97;28.65;;;;;;;;;;6215247;28;20056;-75
2020/12/20 10:00:14;;;;;;;39.30;28.50;;;;;;;;;;6225882;28;20099;-73
2020/12/20 10:03:15;;;;;;;40.80;27.98;;;;;;;;;;6227327;28;20138;-74
2020/12/20 10:06:17;;;;;;;47.67;30.52;;;;;;;;;;6235262;28;20045;-75
2020/12/20 10:09:18;;;;;;;40.22;28.20;;;;;;;;;;6228976;28;20114;-73
2020/12/20 10:12:19;;;;;;;41.65;28.92;;;;;;;;;;6238293;28;20053;-74
2020/12/20 10:15:21;;;;;;;47.78;30.23;;;;;;;;;;6225090;28;20172;-73
2020/12/20 10:18:22;;;;;;;40.92;28.92;;;;;;;;;;6227269;28;20042;-73
2020/12/20 10:21:23;;;;;;;43.53;29.13;;;;;;;;;;6230674;28;20053;-73
2020/12/20 10:24:24;;;;;;;47.67;30.63;;;;;;;;;;6235162;28;20051;-73
2020/12/20 10:27:25;;;;;;;51.33;31.42;;;;;;;;;;6239383;28;20064;-74
2020/12/20 10:30:27;;;;;;;48.05;31.15;;;;;;;;;;6230716;28;20050;-73
2020/12/20 10:33:28;;;;;;;48.45;32.20;;;;;;;;;;6230906;28;20053;-73
2020/12/20 10:36:29;;;;;;;49.97;32.72;;;;;;;;;;6226393;28;20134;-73
2020/12/20 10:39:30;;;;;;;51.50;32.08;;;;;;;;;;6231310;28;20420;-75
2020/12/20 10:42:31;;;;;;;54.65;34.22;;;;;;;;;;6227674;28;20601;-74
2020/12/20 10:45:33;;;;;;;54.67;35.33;;;;;;;;;;6224342;28;20056;-75
2020/12/20 10:48:34;;;;;;;52.17;33.60;;;;;;;;;;6228983;28;20051;-75
2020/12/20 10:51:35;;;;;;;55.28;34.35;;;;;;;;;;6224162;28;20050;-75
2020/12/20 10:54:36;;;;;;;53.42;34.53;;;;;;;;;;6223945;28;20075;-75
2020/12/20 10:57:37;;;;;;;52.88;33.42;;;;;;;;;;6223291;28;20053;-74
2020/12/20 11:00:39;;;;;;;54.42;34.60;;;;;;;;;;6222323;28;20042;-75
2020/12/20 11:03:40;;;;;;;56.00;36.10;;;;;;;;;;6225517;28;20042;-74
2020/12/20 11:06:41;;;;;;;55.65;34.85;;;;;;;;;;6234971;28;20519;-75
2020/12/20 11:09:43;;;;;;;57.78;35.28;;;;;;;;;;6238624;28;20045;-75
2020/12/20 11:12:44;;;;;;;56.40;34.22;;;;;;;;;;6234097;28;20132;-74
2020/12/20 11:15:46;;;;;;;49.63;33.15;;;;;;;;;;6231103;28;20053;-75
2020/12/20 11:18:48;;;;;;;55.05;34.67;;;;;;;;;;6231964;28;21710;-74
2020/12/20 11:21:51;;;;;;;50.88;32.40;;;;;;;;;;6233443;28;20772;-75
2020/12/20 11:24:52;;;;;;;55.25;33.70;;;;;;;;;;6229975;28;20053;-75
2020/12/20 11:27:53;;;;;;;52.85;33.00;;;;;;;;;;6224707;28;20050;-75
2020/12/20 11:30:55;;;;;;;50.00;32.53;;;;;;;;;;6220473;28;20147;-75
2020/12/20 11:33:56;;;;;;;50.47;33.70;;;;;;;;;;6223704;28;20140;-75
2020/12/20 11:36:57;;;;;;;56.28;33.65;;;;;;;;;;6229198;28;20053;-75
2020/12/20 11:39:58;;;;;;;53.58;34.22;;;;;;;;;;6223576;28;20521;-75
2020/12/20 11:42:59;;;;;;;53.65;35.85;;;;;;;;;;6225879;28;20046;-75
2020/12/20 11:46:01;;;;;;;53.88;33.78;;;;;;;;;;6228830;28;20037;-75
2020/12/20 11:49:03;;;;;;;55.85;35.75;;;;;;;;;;6235750;28;20369;-75
2020/12/20 11:52:04;;;;;;;52.47;33.78;;;;;;;;;;6232721;28;20061;-75
2020/12/20 11:55:05;;;;;;;53.83;33.92;;;;;;;;;;6226922;28;20041;-74
2020/12/20 11:58:11;;;;;;;54.47;35.08;;;;;;;;;;6234475;28;20081;-74
2020/12/20 12:01:13;;;;;;;53.25;34.63;;;;;;;;;;6238673;28;20045;-74
2020/12/20 12:04:15;;;;;;;54.60;34.90;;;;;;;;;;6226940;28;20076;-74
2020/12/20 12:07:16;;;;;;;52.75;34.13;;;;;;;;;;6222905;28;20064;-74
2020/12/20 12:10:17;;;;;;;52.50;34.00;;;;;;;;;;6230331;28;20053;-74
2020/12/20 12:13:18;;;;;;;55.50;33.20;;;;;;;;;;6239483;28;20132;-76
2020/12/20 12:16:20;;;;;;;52.58;34.20;;;;;;;;;;6226531;28;20055;-75
2020/12/20 12:19:21;;;;;;;51.75;34.15;;;;;;;;;;6236838;28;20069;-75
2020/12/20 12:22:23;;;;;;;53.63;34.53;;;;;;;;;;6231248;28;20050;-75
2020/12/20 12:25:24;;;;;;;55.85;35.13;;;;;;;;;;6232993;28;20048;-76
2020/12/20 12:28:27;;;;;;;62.10;36.55;;;;;;;;;;6234398;28;20562;-75
2020/12/20 12:31:29;;;;;;;56.30;35.35;;;;;;;;;;6200924;28;20669;-75
2020/12/20 12:34:30;;;;;;;53.42;34.25;;;;;;;;;;6206469;28;20049;-75
2020/12/20 12:37:31;;;;;;;52.20;33.22;;;;;;;;;;6196025;28;20044;-74
2020/12/20 12:40:32;;;;;;;55.42;35.28;;;;;;;;;;6196945;28;20057;-75
2020/12/20 12:43:33;;;;;;;58.42;35.10;;;;;;;;;;6202776;28;20154;-72
2020/12/20 12:46:36;;;;;;;51.83;33.47;;;;;;;;;;6199524;28;20141;-73
2020/12/20 12:49:37;;;;;;;52.95;32.88;;;;;;;;;;6229878;28;20053;-75
2020/12/20 12:52:38;;;;;;;52.95;33.92;;;;;;;;;;6225329;28;20620;-74
2020/12/20 12:55:39;;;;;;;51.60;34.03;;;;;;;;;;6231633;28;20144;-74
2020/12/20 12:58:40;;;;;;;56.83;35.13;;;;;;;;;;6229943;28;20069;-74
2020/12/20 13:01:42;;;;;;;50.65;34.05;;;;;;;;;;6228059;28;20045;-74
2020/12/20 13:04:43;;;;;;;52.78;33.97;;;;;;;;;;6229102;28;20045;-74
2020/12/20 13:07:45;;;;;;;50.78;33.83;;;;;;;;;;6230196;28;20432;-74
2020/12/20 13:10:46;;;;;;;51.67;35.20;;;;;;;;;;6229549;28;20063;-74
2020/12/20 13:13:47;;;;;;;53.15;34.40;;;;;;;;;;6231200;28;20045;-74
2020/12/20 13:16:52;;;;;;;55.53;36.30;;;;;;;;;;6234299;28;20107;-75
2020/12/20 13:19:53;;;;;;;58.92;36.95;;;;;;;;;;6227550;28;20059;-74
2020/12/20 13:22:54;;;;;;;59.95;37.05;;;;;;;;;;6228693;28;20460;-74
2020/12/20 13:25:55;;;;;;;54.83;35.72;;;;;;;;;;6229773;28;20045;-74
2020/12/20 13:28:56;;;;;;;59.97;36.25;;;;;;;;;;5876807;28;10000587;-74
2020/12/20 13:31:58;;;;;;;58.38;36.50;;;;;;;;;;6239024;28;20053;-74
2020/12/20 13:35:01;;;;;;;60.95;36.47;;;;;;;;;;6231032;28;20136;-74
2020/12/20 13:38:02;;;;;;;55.95;36.78;;;;;;;;;;6227095;28;20119;-75
2020/12/20 13:41:03;;;;;;;57.53;36.58;;;;;;;;;;6237876;28;20161;-74
2020/12/20 13:44:04;;;;;;;57.65;36.95;;;;;;;;;;6229390;28;20047;-75
2020/12/20 13:47:06;;;;;;;57.95;36.65;;;;;;;;;;6232953;28;20560;-74
2020/12/20 13:50:07;;;;;;;59.45;37.72;;;;;;;;;;6224147;28;20505;-75
2020/12/20 13:53:08;;;;;;;57.20;37.05;;;;;;;;;;6228667;28;20153;-75
2020/12/20 13:56:09;;;;;;;53.90;34.88;;;;;;;;;;6239272;28;20044;-75
2020/12/20 13:59:10;;;;;;;58.33;37.17;;;;;;;;;;6237243;28;20055;-75
2020/12/20 14:02:12;;;;;;;55.42;35.35;;;;;;;;;;6235620;28;20050;-74
2020/12/20 14:05:13;;;;;;;54.55;35.33;;;;;;;;;;6231484;28;20042;-73
2020/12/20 14:08:14;;;;;;;49.70;33.00;;;;;;;;;;6232813;28;20566;-75
2020/12/20 14:11:15;;;;;;;54.17;35.08;;;;;;;;;;6230945;28;20061;-75
2020/12/20 14:14:16;;;;;;;49.58;33.60;;;;;;;;;;6225805;28;20482;-75
2020/12/20 14:17:18;;;;;;;54.10;35.38;;;;;;;;;;6230402;28;20136;-74
2020/12/20 14:20:20;;;;;;;55.22;35.03;;;;;;;;;;6235140;28;20045;-74
2020/12/20 14:23:21;;;;;;;53.05;34.00;;;;;;;;;;6230887;28;20038;-74
2020/12/20 14:26:22;;;;;;;50.72;33.22;;;;;;;;;;6231156;28;20152;-74
2020/12/20 14:29:23;;;;;;;53.75;35.80;;;;;;;;;;6238097;28;20176;-74
2020/12/20 14:32:25;;;;;;;53.30;34.85;;;;;;;;;;6232527;28;20046;-75
2020/12/20 14:35:26;;;;;;;53.25;34.13;;;;;;;;;;6228032;28;20055;-75
2020/12/20 14:38:27;;;;;;;53.88;35.25;;;;;;;;;;5882697;28;10000337;-74
2020/12/20 14:41:28;;;;;;;54.10;35.80;;;;;;;;;;6230667;28;20091;-74
2020/12/20 14:44:29;;;;;;;53.83;33.92;;;;;;;;;;6226342;28;20126;-74
2020/12/20 14:47:31;;;;;;;52.58;34.22;;;;;;;;;;6225944;28;20057;-74
2020/12/20 14:50:32;;;;;;;50.42;32.70;;;;;;;;;;6232751;28;20069;-74
2020/12/20 14:53:33;;;;;;;55.47;33.38;;;;;;;;;;6228085;28;20145;-74
2020/12/20 14:56:34;;;;;;;49.45;33.53;;;;;;;;;;6230745;28;20045;-74
2020/12/20 14:59:35;;;;;;;52.97;33.30;;;;;;;;;;6229600;28;20128;-74
2020/12/20 15:02:37;;;;;;;47.95;32.22;;;;;;;;;;6229260;28;20041;-74
2020/12/20 15:05:38;;;;;;;49.85;33.10;;;;;;;;;;6228997;28;20053;-73
2020/12/20 15:08:39;;;;;;;52.60;34.35;;;;;;;;;;6230510;28;20045;-75
2020/12/20 15:11:44;;;;;;;53.67;34.42;;;;;;;;;;6236798;28;20132;-73
2020/12/20 15:14:47;;;;;;;57.60;35.28;;;;;;;;;;6225351;28;20079;-75
2020/12/20 15:17:49;;;;;;;53.20;34.67;;;;;;;;;;6226757;28;20056;-75
2020/12/20 15:20:50;;;;;;;53.60;34.53;;;;;;;;;;6234919;28;20540;-74
2020/12/20 15:23:51;;;;;;;52.55;34.05;;;;;;;;;;6215287;28;20517;-75
2020/12/20 15:26:52;;;;;;;51.58;33.30;;;;;;;;;;6206626;28;20048;-75
2020/12/20 15:29:53;;;;;;;51.28;34.13;;;;;;;;;;6214350;28;20045;-74
2020/12/20 15:32:55;;;;;;;51.78;33.58;;;;;;;;;;6220568;28;20045;-74
2020/12/20 15:35:57;;;;;;;48.65;31.75;;;;;;;;;;6227472;28;22873;-75
2020/12/20 15:38:58;;;;;;;52.35;34.05;;;;;;;;;;6231343;28;20372;-74
2020/12/20 15:41:59;;;;;;;51.97;33.13;;;;;;;;;;6227936;28;20041;-73
2020/12/20 15:45:00;;;;;;;52.83;32.80;;;;;;;;;;6223653;28;20057;-74
2020/12/20 15:48:01;;;;;;;50.00;32.10;;;;;;;;;;6223249;28;20062;-73
2020/12/20 15:51:02;;;;;;;48.90;32.63;;;;;;;;;;6230398;28;20138;-73
2020/12/20 15:54:04;;;;;;;47.22;30.77;;;;;;;;;;6228072;28;20132;-74
2020/12/20 15:57:05;;;;;;;49.38;32.55;;;;;;;;;;6227471;28;20710;-74
2020/12/20 16:00:07;;;;;;;46.58;30.65;;;;;;;;;;6232255;28;20091;-74
2020/12/20 16:03:09;;;;;;;47.50;31.30;;;;;;;;;;6231468;28;20045;-73
2020/12/20 16:06:10;;;;;;;45.58;30.80;;;;;;;;;;6218906;28;20046;-74
2020/12/20 16:09:11;;;;;;;50.65;31.95;;;;;;;;;;6213776;28;20589;-75
2020/12/20 16:12:12;;;;;;;45.85;29.77;;;;;;;;;;6201326;28;20068;-73
2020/12/20 16:15:13;;;;;;;46.30;30.45;;;;;;;;;;6203125;28;20459;-72
2020/12/20 16:18:15;;;;;;;44.20;29.95;;;;;;;;;;6202506;28;20571;-75
2020/12/20 16:21:23;;;;;;;44.92;29.75;;;;;;;;;;6226050;28;20052;-73
2020/12/20 16:24:26;;;;;;;43.00;28.98;;;;;;;;;;6198816;28;20102;-73
2020/12/20 16:27:27;;;;;;;46.55;31.80;;;;;;;;;;6200951;28;20073;-73
2020/12/20 16:30:28;;;;;;;40.90;27.55;;;;;;;;;;6211477;28;20105;-74
2020/12/20 16:33:35;;;;;;;44.08;28.60;;;;;;;;;;6225370;28;20053;-73
2020/12/20 16:36:37;;;;;;;39.80;27.50;;;;;;;;;;6230728;28;20167;-73
2020/12/20 16:39:38;;;;;;;40.50;27.92;;;;;;;;;;6223056;28;20054;-76
2020/12/20 16:42:39;;;;;;;38.97;26.77;;;;;;;;;;6235230;28;20497;-76
2020/12/20 16:45:40;;;;;;;38.95;26.73;;;;;;;;;;6228323;28;20045;-74
2020/12/20 16:48:43;;;;;;;37.90;26.05;;;;;;;;;;6223510;28;20042;-74
2020/12/20 16:51:45;;;;;;;37.83;25.80;;;;;;;;;;6225818;28;20045;-74
2020/12/20 16:54:47;;;;;;;39.05;26.55;;;;;;;;;;6225753;28;20125;-74
2020/12/20 16:57:48;;;;;;;41.92;27.75;;;;;;;;;;6235459;28;20055;-74
2020/12/20 17:00:50;;;;;;;36.47;25.70;;;;;;;;;;6228499;28;20064;-73
2020/12/20 17:03:52;;;;;;;38.63;25.60;;;;;;;;;;6226326;28;20065;-72
2020/12/20 17:06:53;;;;;;;38.47;24.80;;;;;;;;;;6224714;28;20041;-73
2020/12/20 17:09:54;;;;;;;37.97;25.63;;;;;;;;;;6231798;28;20136;-72
2020/12/20 17:12:55;;;;;;;38.55;25.40;;;;;;;;;;6234858;28;20037;-73
2020/12/20 17:15:56;;;;;;;37.47;27.17;;;;;;;;;;6235189;28;20141;-73
2020/12/20 17:18:58;;;;;;;37.03;25.67;;;;;;;;;;6231997;28;20144;-73
2020/12/20 17:22:01;;;;;;;37.33;25.88;;;;;;;;;;6236795;28;20091;-72
2020/12/20 17:25:03;;;;;;;36.45;24.95;;;;;;;;;;6234463;28;20053;-73
2020/12/20 17:28:04;;;;;;;37.47;25.58;;;;;;;;;;6238203;28;20045;-74
2020/12/20 17:31:05;;;;;;;40.10;26.60;;;;;;;;;;6235490;28;20135;-73
2020/12/20 17:34:07;;;;;;;38.47;26.33;;;;;;;;;;6226861;28;20074;-73
2020/12/20 17:37:08;;;;;;;37.40;25.23;;;;;;;;;;6234793;28;20137;-73